首页
METAR-TAF:

METAR-TAF

机场 :

斯特拉斯堡国际机场

斯特拉斯堡, 法国

纬度: 48-33N, 经度: 007-38E, 海拔: 153米

当前天气观测

该预报发布于16分钟前的04:30 UTC
风速7节,风向
温度 5°C
湿度 87%
气压 1016 hPa
能见度10公里或以上
阴天层高于1900英尺

METAR: LFST 190430Z AUTO 18007KT 9999 OVC019 05/03 Q1016 TEMPO BKN004

时间: 05:46 (04:46 UTC)

预报

该预报发布于5小时和46分钟前的23:00 UTC
预报有效从19日的 00点(UTC)到 19日的 24点(UTC)
风速9节,风向
能见度10公里或以上
少量云层高于500英尺
多云层高于3000英尺
几率 40% :
短暂存在
从 19日的 00点(UTC)到 19日的 12点(UTC)
多云层高于400英尺
成为
从 19日的 12点(UTC)到 19日的 15点(UTC)
风速5节,风向
短暂存在
从 19日的 19点(UTC)到 19日的 24点(UTC)
多云层高于400英尺
短暂存在
从 19日的 20点(UTC)到 19日的 24点(UTC)
能見度: 4000
轻雾

TAF: LFST 182300Z 1900/1924 19009KT 9999 FEW005 BKN030 PROB40 TEMPO 1900/1912 BKN004 BECMG 1912/1915 36005KT TEMPO 1919/1924 BKN004 TEMPO 1920/1924 4000 BR

超过4000个机场的气象观测和天气预报(METAR&TAF报告)。

可查询的气象台以黄色和红色小点在地图上表示。

将鼠标移到小点上方,可查看气象台名称。

然后点击查看天气观测和预报。

如需切换地图:点击带黑十字的绿色按钮放大地图;点击带横线的绿色按钮缩小地图;或者点击绿色箭头查看邻近地区的地图。


METAR-TAF: